• Join FlightAware (Why Join?)
  • Login
  • US Flag 
07:39PM EST


 

Airport Tracker/Info


-or-


 

Live Flight TrackerFlight Track Log ✈ EJA364 ✈ 18-Jul-2013 ✈ KHXD - KCLT

Flight Track Log - Related Links

Times and Time Zones

All times are in EDT time to prevent confusion due to time zone crossing. See the EJA364 flight status page for this flight to view local times or setup timezone preferences in your user account.

Time Position Orientation Groundspeed Altitude Reporting Facility
EDT Latitude Longitude Course Direction KTS MPH feet Rate Location/Type
01:33PM 32.3431 -80.6500 18° North 213 245 9,800  Level Jacksonville Center
01:34PM 32.4300 -80.6158 18° North 299 344 11,400 2,940 Climbing Jacksonville Center
01:35PM 32.5211 -80.5817 18° North 341 392 15,700 2,220 Climbing Jacksonville Center
01:36PM 32.6208 -80.5494 15° North 351 404 15,900 60 Climbing Jacksonville Center
01:37PM 32.8633 -80.4511 16° North  Level FlightAware Approximate
01:37PM 32.7225 -80.5122 17° North 369 425 15,900  Level Jacksonville Center
01:38PM 32.8239 -80.4750 17° North 375 432 15,900  Level Jacksonville Center
01:39PM 32.9278 -80.4375 17° North 375 432 15,900  Level Jacksonville Center
01:40PM 33.0314 -80.4000 17° North 380 437 16,000  Climbing Jacksonville Center
01:41PM 33.1328 -80.3625 17° North 385 443 16,000 -60 Level Jacksonville Center
01:42PM 33.2342 -80.3247 17° North 375 432 15,900 -60 Descending Jacksonville Center
01:43PM 33.3378 -80.2869 17° North 375 432 15,900  Level Jacksonville Center
01:44PM 33.4292 -80.2544 17° North 375 432 15,900  Level Jacksonville Center
01:45PM 33.5333 -80.2539 360° North 375 432 15,900  Level Jacksonville Center
01:46PM 33.6378 -80.2633 356° North 365 420 15,900  Level Jacksonville Center
01:47PM 33.7444 -80.2700 357° North 370 426 15,900  Level Jacksonville Center
01:48PM 33.8489 -80.2794 356° North 370 426 15,900  Level Jacksonville Center
01:49PM 33.9575 -80.2861 357° North 375 432 15,900  Level Jacksonville Center
01:50PM 34.0664 -80.2956 356° North 380 437 15,900  Level Jacksonville Center
01:51PM 34.1750 -80.3047 356° North 386 444 15,900  Level Jacksonville Center
01:52PM 34.2836 -80.3117 357° North 386 444 15,900  Level Jacksonville Center
01:53PM 34.3903 -80.3211 356° North 386 444 15,900 -1,260 Level Jacksonville Center
01:55PM 34.6422 -80.3400 356° North 375 432 11,900 -1,560 Descending Atlanta Center
01:56PM 34.7311 -80.3792 340° North 345 397 10,900 -780 Descending Atlanta Center
01:57PM 34.7981 -80.4622 314° West 342 394 10,400 -480 Descending Atlanta Center
01:58PM 34.8761 -80.5625 314° West 348 400 10,000 -240 Descending Atlanta Center
01:59PM 34.9497 -80.6558 314° West 356 410 10,000  Level Atlanta Center
02:00PM 35.0211 -80.7442 315° West 346 398 10,000  Level Atlanta Center
02:01PM 35.0953 -80.7919 332° Northwest 293 337 10,000 -360 Level Atlanta Center
02:02PM 35.1561 -80.8047 350° North 231 266 9,400 -1,080 Descending Atlanta Center
02:03PM 35.2189 -80.8150 352° North 241 277 8,100 -1,440 Descending Atlanta Center
02:04PM 35.2903 -80.8278 352° North 235 270 6,500 -1,440 Descending Atlanta Center